createdAt,value
2023-03-21T00:03:59.577Z,54.59
2023-03-21T00:09:01.249Z,54.73
2023-03-21T00:14:02.639Z,54.66
2023-03-21T00:19:06.198Z,54.78
2023-03-21T00:24:07.935Z,54.80
2023-03-21T00:29:09.316Z,54.59
2023-03-21T00:34:14.011Z,54.20
2023-03-21T00:39:15.495Z,54.74
2023-03-21T00:44:17.419Z,55.09
2023-03-21T00:49:20.786Z,55.78
2023-03-21T00:54:22.142Z,55.57
2023-03-21T00:59:23.631Z,56.44
2023-03-21T01:04:26.898Z,56.37
2023-03-21T01:09:28.549Z,56.15
2023-03-21T01:14:29.972Z,56.60
2023-03-21T01:19:48.323Z,56.65
2023-03-21T01:24:58.644Z,56.45
2023-03-21T01:30:11.293Z,56.59
2023-03-21T01:35:19.023Z,56.46
2023-03-21T01:40:24.392Z,56.60
2023-03-21T01:46:21.200Z,57.20
2023-03-21T01:51:23.880Z,56.96
2023-03-21T01:56:30.665Z,57.43
2023-03-21T02:01:34.773Z,56.97
2023-03-21T02:07:17.674Z,56.95
2023-03-21T02:12:19.991Z,57.37
2023-03-21T02:17:35.777Z,57.85
2023-03-21T02:22:37.099Z,57.95
2023-03-21T02:27:48.705Z,58.15
2023-03-21T02:32:50.245Z,58.00
2023-03-21T02:38:00.924Z,58.34
2023-03-21T02:43:22.139Z,58.46
2023-03-21T02:49:12.738Z,58.64
2023-03-21T02:54:38.263Z,58.81
2023-03-21T02:59:51.603Z,58.88
2023-03-21T03:04:55.578Z,59.31
2023-03-21T03:10:07.870Z,59.47
2023-03-21T03:15:18.733Z,59.56
2023-03-21T03:20:30.398Z,59.41
2023-03-21T03:25:43.664Z,59.82
2023-03-21T03:31:05.048Z,60.12
2023-03-21T03:36:18.830Z,59.92
2023-03-21T03:41:29.448Z,60.18
2023-03-21T03:46:47.349Z,60.36
2023-03-21T03:51:56.335Z,60.38
2023-03-21T03:56:58.533Z,60.42
2023-03-21T04:01:59.842Z,60.65
2023-03-21T04:07:03.406Z,60.79
2023-03-21T04:12:04.818Z,60.97
2023-03-21T04:17:06.151Z,60.69
2023-03-21T04:22:08.086Z,60.95
2023-03-21T04:27:09.460Z,60.92
2023-03-21T04:32:16.266Z,61.23
2023-03-21T04:37:19.010Z,61.01
2023-03-21T04:42:20.377Z,60.70
2023-03-21T04:47:21.896Z,60.44
2023-03-21T04:52:25.254Z,60.16
2023-03-21T04:57:26.936Z,60.61
2023-03-21T05:02:28.297Z,60.68
2023-03-21T05:07:31.194Z,60.80
2023-03-21T05:12:32.581Z,60.46
2023-03-21T05:17:34.113Z,60.52
2023-03-21T05:22:40.306Z,60.08
2023-03-21T05:27:46.030Z,60.01
2023-03-21T05:32:47.415Z,59.86
2023-03-21T05:37:48.899Z,60.04
2023-03-21T05:42:50.254Z,60.03
2023-03-21T05:47:51.753Z,60.00
2023-03-21T05:52:53.158Z,59.88
2023-03-21T05:57:54.557Z,59.54
2023-03-21T06:02:56.067Z,59.67
2023-03-21T06:07:57.470Z,59.97
2023-03-21T06:12:58.810Z,59.37
2023-03-21T06:18:00.327Z,59.46
2023-03-21T06:23:01.650Z,59.49
2023-03-21T06:28:03.304Z,59.91
2023-03-21T06:33:04.634Z,59.46
2023-03-21T06:38:06.037Z,59.60
2023-03-21T06:43:07.423Z,59.73
2023-03-21T06:48:09.462Z,59.14
2023-03-21T06:53:10.868Z,59.05
2023-03-21T06:58:12.315Z,58.92
2023-03-21T07:03:14.580Z,58.84
2023-03-21T07:08:15.990Z,58.60
2023-03-21T07:13:17.430Z,58.56
2023-03-21T07:18:19.063Z,58.27
2023-03-21T07:23:22.407Z,58.38
2023-03-21T07:28:24.397Z,57.72
2023-03-21T07:33:26.443Z,57.63
2023-03-21T07:38:28.154Z,57.20
2023-03-21T07:43:29.567Z,56.73
2023-03-21T07:48:31.860Z,56.18
2023-03-21T07:53:33.367Z,55.92
2023-03-21T07:58:34.830Z,55.41
2023-03-21T08:03:36.288Z,55.26
2023-03-21T08:08:37.679Z,54.88
2023-03-21T08:13:40.205Z,55.10
2023-03-21T08:18:42.713Z,54.85
2023-03-21T08:23:44.132Z,54.71
2023-03-21T08:28:46.263Z,54.53
2023-03-21T08:33:50.952Z,54.21
2023-03-21T08:38:56.821Z,53.46
2023-03-21T08:43:58.252Z,53.48
2023-03-21T08:48:59.675Z,53.61
2023-03-21T08:54:01.291Z,53.67
2023-03-21T08:59:02.735Z,53.81
2023-03-21T09:04:07.808Z,53.51
2023-03-21T09:09:09.401Z,53.58
2023-03-21T09:14:11.679Z,53.19
2023-03-21T09:19:13.153Z,53.08
2023-03-21T09:24:15.488Z,52.59
2023-03-21T09:29:19.428Z,52.28
2023-03-21T09:34:21.168Z,51.74
2023-03-21T09:39:23.796Z,51.22
2023-03-21T09:44:37.477Z,50.89
2023-03-21T09:49:44.902Z,50.81
2023-03-21T09:54:46.542Z,50.68
2023-03-21T09:59:50.958Z,50.83
2023-03-21T10:04:52.864Z,50.64
2023-03-21T10:09:55.211Z,50.34
2023-03-21T10:15:00.691Z,49.92
2023-03-21T10:20:22.354Z,49.73
2023-03-21T10:25:36.966Z,49.58
2023-03-21T10:30:48.461Z,49.44
2023-03-21T10:35:53.364Z,49.62
2023-03-21T10:40:55.893Z,49.57
2023-03-21T10:45:58.128Z,49.96
2023-03-21T10:50:59.691Z,50.23
2023-03-21T10:56:02.120Z,51.31
2023-03-21T11:01:06.818Z,52.34
2023-03-21T11:06:14.199Z,55.79
2023-03-21T11:11:27.507Z,57.46
2023-03-21T11:16:39.758Z,60.30
2023-03-21T11:21:42.911Z,61.37
2023-03-21T11:26:48.090Z,62.98
2023-03-21T11:31:49.793Z,63.47
2023-03-21T11:36:51.238Z,64.98
2023-03-21T11:41:52.791Z,65.34
2023-03-21T11:46:54.503Z,65.70
2023-03-21T11:52:32.356Z,66.02
2023-03-21T11:58:15.748Z,68.12
2023-03-21T12:03:32.898Z,68.83
2023-03-21T12:09:04.614Z,69.00
2023-03-21T12:14:14.972Z,69.16
2023-03-21T12:19:26.922Z,70.40
2023-03-21T12:24:48.748Z,69.60
2023-03-21T12:30:10.628Z,69.82
2023-03-21T12:35:19.773Z,69.97
2023-03-21T12:40:54.595Z,69.64
2023-03-21T12:46:01.276Z,69.12
2023-03-21T12:51:08.285Z,68.84
2023-03-21T12:56:16.787Z,68.77
2023-03-21T13:01:21.434Z,69.09
2023-03-21T13:06:27.208Z,68.98
2023-03-21T13:11:31.149Z,69.02
2023-03-21T13:16:41.625Z,69.13
2023-03-21T13:22:06.049Z,69.76
2023-03-21T13:27:16.399Z,69.75
2023-03-21T13:32:31.911Z,70.41
2023-03-21T13:37:38.615Z,70.45
2023-03-21T13:42:48.567Z,70.12
2023-03-21T13:48:25.417Z,69.98
2023-03-21T13:53:31.520Z,70.94
2023-03-21T13:58:34.733Z,71.09
2023-03-21T14:03:36.234Z,71.27
2023-03-21T14:08:41.168Z,71.13
2023-03-21T14:13:50.851Z,71.55
2023-03-21T14:19:02.833Z,71.62
2023-03-21T14:24:12.743Z,72.39
2023-03-21T14:29:31.897Z,72.13
2023-03-21T14:34:35.662Z,72.56
2023-03-21T14:39:37.150Z,72.43
2023-03-21T14:44:54.009Z,73.73
2023-03-21T14:49:57.447Z,73.61
2023-03-21T14:55:00.659Z,73.64
2023-03-21T15:00:12.611Z,73.31
2023-03-21T15:05:23.250Z,73.26
2023-03-21T15:10:27.174Z,73.32
2023-03-21T15:15:31.505Z,73.45
2023-03-21T15:20:36.624Z,73.88
2023-03-21T15:25:39.222Z,74.31
2023-03-21T15:30:48.260Z,74.53
2023-03-21T15:35:54.085Z,74.68
2023-03-21T15:41:26.141Z,74.29
2023-03-21T15:46:41.929Z,73.75
2023-03-21T15:51:52.455Z,74.20
2023-03-21T15:56:55.855Z,74.35
2023-03-21T16:01:57.408Z,74.09
2023-03-21T16:07:15.966Z,73.45
2023-03-21T16:12:18.907Z,73.44
2023-03-21T16:17:37.393Z,73.40
2023-03-21T16:22:38.744Z,73.61
2023-03-21T16:27:40.266Z,73.50
2023-03-21T16:32:41.732Z,73.40
2023-03-21T16:37:43.576Z,73.94
2023-03-21T16:42:45.440Z,73.68
2023-03-21T16:47:47.302Z,73.83
2023-03-21T16:52:48.760Z,73.25
2023-03-21T16:57:54.077Z,73.43
2023-03-21T17:02:57.353Z,73.57
2023-03-21T17:08:02.040Z,73.60
2023-03-21T17:13:03.424Z,73.05
2023-03-21T17:18:05.459Z,73.06
2023-03-21T17:23:07.440Z,73.52
2023-03-21T17:28:08.824Z,73.56
2023-03-21T17:33:10.172Z,73.63
2023-03-21T17:38:17.428Z,73.71
2023-03-21T17:43:20.873Z,73.25
2023-03-21T17:48:22.289Z,73.69
2023-03-21T17:53:23.952Z,73.32
2023-03-21T17:58:26.160Z,73.61
2023-03-21T18:03:27.530Z,73.28
2023-03-21T18:08:28.893Z,73.24
2023-03-21T18:13:30.240Z,73.62
2023-03-21T18:18:31.583Z,73.67
2023-03-21T18:23:33.015Z,73.99
2023-03-21T18:28:39.597Z,74.16
2023-03-21T18:33:41.686Z,73.89
2023-03-21T18:38:43.447Z,74.46
2023-03-21T18:44:04.752Z,74.49
2023-03-21T18:49:48.244Z,74.15
2023-03-21T18:54:28.700Z,74.37
2023-03-21T18:59:32.406Z,74.15
2023-03-21T19:04:34.122Z,73.80
2023-03-21T19:09:58.199Z,74.00
2023-03-21T19:14:58.090Z,74.02
2023-03-21T19:19:59.873Z,74.49
2023-03-21T19:25:01.200Z,74.26
2023-03-21T19:30:13.793Z,74.30
2023-03-21T19:35:16.275Z,74.70
2023-03-21T19:40:19.734Z,74.53
2023-03-21T19:45:21.478Z,74.48
2023-03-21T19:50:49.363Z,74.96
2023-03-21T19:55:51.874Z,74.61
2023-03-21T20:00:53.441Z,74.80
2023-03-21T20:06:06.080Z,74.56
2023-03-21T20:11:07.457Z,74.82
2023-03-21T20:16:10.686Z,74.88
2023-03-21T20:21:17.520Z,75.62
2023-03-21T20:26:19.831Z,75.33
2023-03-21T20:31:21.208Z,75.31
2023-03-21T20:36:38.698Z,74.75
2023-03-21T20:41:41.315Z,74.96
2023-03-21T20:46:43.451Z,75.15
2023-03-21T20:52:44.586Z,74.84
2023-03-21T20:57:06.143Z,75.01
2023-03-21T21:02:09.389Z,74.83
2023-03-21T21:07:17.117Z,74.73
2023-03-21T21:12:19.175Z,75.10
2023-03-21T21:17:42.856Z,75.03
2023-03-21T21:22:59.162Z,75.21
2023-03-21T21:28:02.566Z,74.83
2023-03-21T21:33:04.711Z,74.89
2023-03-21T21:38:06.254Z,74.96
2023-03-21T21:43:07.566Z,75.25
2023-03-21T21:48:09.800Z,75.03
2023-03-21T21:53:11.629Z,75.20
2023-03-21T21:58:13.499Z,75.14
2023-03-21T22:03:21.928Z,75.05
2023-03-21T22:08:23.376Z,75.02
2023-03-21T22:13:24.715Z,75.20
2023-03-21T22:18:26.179Z,75.09
2023-03-21T22:23:27.904Z,75.27
2023-03-21T22:28:30.220Z,75.32
2023-03-21T22:33:33.319Z,75.61
2023-03-21T22:38:37.928Z,75.47
2023-03-21T22:43:39.740Z,75.41
2023-03-21T22:48:41.391Z,75.32
2023-03-21T22:53:42.720Z,75.36
2023-03-21T22:58:44.089Z,75.62
2023-03-21T23:03:45.577Z,75.20
2023-03-21T23:08:46.906Z,75.27
2023-03-21T23:13:51.608Z,75.17
2023-03-21T23:19:00.126Z,75.37
2023-03-21T23:24:01.472Z,75.35
2023-03-21T23:29:05.066Z,75.50
2023-03-21T23:34:06.414Z,74.93
2023-03-21T23:39:08.256Z,74.87
2023-03-21T23:44:09.632Z,75.14
2023-03-21T23:49:10.963Z,75.53
2023-03-21T23:54:12.951Z,75.78
2023-03-21T23:59:14.385Z,75.41
